Time,TemperatureF,DewpointF,PressureIn,WindDirection,WindDirectionDegrees,WindSpeedMPH,WindSpeedGustMPH,Humidity,HourlyPrecipIn,Conditions,Clouds,dailyrainin,SoftwareType,DateUTC
2013-04-23 00:08:00,38.7,38.1,30.91,NNE,22,5.1,-999.0,98,-99.99,,,0.00,Acu-Link.com,2013-04-23 04:08:00,
2013-04-23 00:23:00,38.7,38.1,30.90,West,270,2.7,-999.0,98,-99.99,,,0.00,Acu-Link.com,2013-04-23 04:23:00,
2013-04-23 00:39:00,38.3,37.8,30.90,NE,45,3.1,-999.0,98,-99.99,,,0.00,Acu-Link.com,2013-04-23 04:39:00,
2013-04-23 00:54:00,37.9,37.4,30.90,NE,45,4.3,-999.0,98,-99.99,,,0.00,Acu-Link.com,2013-04-23 04:54:00,
2013-04-23 01:09:00,37.4,36.9,30.89,ENE,67,9.4,-999.0,98,-99.99,,,0.00,Acu-Link.com,2013-04-23 05:09:00,
2013-04-23 01:24:00,37.0,36.5,30.89,NNE,22,5.8,-999.0,98,-99.99,,,0.00,Acu-Link.com,2013-04-23 05:24:00,
2013-04-23 01:39:00,36.9,36.3,30.89,South,180,2.7,-999.0,98,-99.99,,,0.00,Acu-Link.com,2013-04-23 05:39:00,
2013-04-23 01:54:00,36.7,36.2,30.87,ENE,67,4.7,-999.0,98,-99.99,,,0.00,Acu-Link.com,2013-04-23 05:54:00,
2013-04-23 02:10:00,36.3,35.8,30.87,East,90,5.1,-999.0,98,-99.99,,,0.00,Acu-Link.com,2013-04-23 06:10:00,
2013-04-23 02:25:00,36.1,35.6,30.86,East,90,4.7,-999.0,98,-99.99,,,0.00,Acu-Link.com,2013-04-23 06:25:00,
2013-04-23 02:40:00,35.8,35.3,30.86,NNE,22,6.3,-999.0,98,-99.99,,,0.00,Acu-Link.com,2013-04-23 06:40:00,
2013-04-23 02:55:00,36.1,35.6,30.86,NE,45,3.8,-999.0,98,-99.99,,,0.00,Acu-Link.com,2013-04-23 06:55:00,
2013-04-23 03:10:00,35.8,35.3,30.84,NE,45,4.3,-999.0,98,-99.99,,,0.00,Acu-Link.com,2013-04-23 07:10:00,
2013-04-23 03:26:00,35.6,35.1,30.84,NNW,337,2.2,-999.0,98,-99.99,,,0.00,Acu-Link.com,2013-04-23 07:26:00,
2013-04-23 03:41:00,35.6,35.1,30.83,NE,45,2.2,-999.0,98,-99.99,,,0.00,Acu-Link.com,2013-04-23 07:41:00,
2013-04-23 03:56:00,35.8,35.3,30.83,East,90,2.7,-999.0,98,-99.99,,,0.00,Acu-Link.com,2013-04-23 07:56:00,
2013-04-23 04:11:00,35.8,35.3,30.82,ENE,67,4.7,-999.0,98,-99.99,,,0.00,Acu-Link.com,2013-04-23 08:11:00,
2013-04-23 04:27:00,35.8,35.3,30.83,North,0,2.2,-999.0,98,-99.99,,,0.00,Acu-Link.com,2013-04-23 08:27:00,
2013-04-23 04:42:00,35.8,35.3,30.82,NNE,22,3.1,-999.0,98,-99.99,,,0.00,Acu-Link.com,2013-04-23 08:42:00,
2013-04-23 04:57:00,36.0,35.5,30.81,ESE,112,2.7,-999.0,98,-99.99,,,0.00,Acu-Link.com,2013-04-23 08:57:00,
2013-04-23 05:12:00,36.1,35.6,30.81,NE,45,11.0,-999.0,98,-99.99,,,0.00,Acu-Link.com,2013-04-23 09:12:00,
2013-04-23 05:27:00,36.1,35.6,30.81,NE,45,8.3,-999.0,98,-99.99,,,0.00,Acu-Link.com,2013-04-23 09:27:00,
2013-04-23 05:43:00,36.1,35.6,30.80,ENE,67,4.3,-999.0,98,-99.99,,,0.00,Acu-Link.com,2013-04-23 09:43:00,
2013-04-23 05:58:00,36.1,35.6,30.81,ENE,67,5.1,-999.0,98,-99.99,,,0.00,Acu-Link.com,2013-04-23 09:58:00,
2013-04-23 06:13:00,36.3,35.8,30.80,NNW,337,6.3,-999.0,98,-99.99,,,0.00,Acu-Link.com,2013-04-23 10:13:00,
2013-04-23 06:28:00,36.5,36.0,30.80,SE,135,3.8,-999.0,98,-99.99,,,0.00,Acu-Link.com,2013-04-23 10:28:00,
2013-04-23 06:43:00,36.7,36.2,30.80,ESE,112,4.3,-999.0,98,-99.99,,,0.00,Acu-Link.com,2013-04-23 10:43:00,
2013-04-23 06:59:00,36.7,36.2,30.80,NE,45,1.6,-999.0,98,-99.99,,,0.00,Acu-Link.com,2013-04-23 10:59:00,
2013-04-23 07:14:00,36.7,36.2,30.80,East,90,3.8,-999.0,98,-99.99,,,0.00,Acu-Link.com,2013-04-23 11:14:00,
2013-04-23 07:29:00,36.9,36.3,30.80,East,90,6.7,-999.0,98,-99.99,,,0.00,Acu-Link.com,2013-04-23 11:29:00,
2013-04-23 07:44:00,37.0,36.5,30.80,SE,135,6.3,-999.0,98,-99.99,,,0.00,Acu-Link.com,2013-04-23 11:44:00,
2013-04-23 08:00:00,37.6,37.1,30.80,SE,135,2.2,-999.0,98,-99.99,,,0.00,Acu-Link.com,2013-04-23 12:00:00,
2013-04-23 08:15:00,37.6,37.1,30.80,NE,45,6.3,-999.0,98,-99.99,,,0.00,Acu-Link.com,2013-04-23 12:15:00,
2013-04-23 08:30:00,37.8,37.2,30.79,ESE,112,3.1,-999.0,98,-99.99,,,0.00,Acu-Link.com,2013-04-23 12:30:00,
2013-04-23 08:45:00,38.1,37.6,30.78,East,90,5.1,-999.0,98,-99.99,,,0.00,Acu-Link.com,2013-04-23 12:45:00,
2013-04-23 09:00:00,38.5,38.0,30.78,ENE,67,5.8,-999.0,98,-99.99,,,0.00,Acu-Link.com,2013-04-23 13:00:00,
2013-04-23 09:16:00,38.3,37.8,30.77,NE,45,5.1,-999.0,98,-99.99,,,0.00,Acu-Link.com,2013-04-23 13:16:00,
2013-04-23 09:31:00,38.8,38.3,30.77,NE,45,5.1,-999.0,98,-99.99,,,0.00,Acu-Link.com,2013-04-23 13:31:00,
2013-04-23 09:46:00,38.3,37.8,30.77,SE,135,4.7,-999.0,98,-99.99,,,0.00,Acu-Link.com,2013-04-23 13:46:00,
2013-04-23 10:01:00,38.3,37.8,30.77,East,90,4.7,-999.0,98,-99.99,,,0.00,Acu-Link.com,2013-04-23 14:01:00,
2013-04-23 10:16:00,37.8,37.2,30.77,SSE,157,2.2,-999.0,98,-99.99,,,0.00,Acu-Link.com,2013-04-23 14:16:00,
2013-04-23 10:32:00,38.7,38.1,30.77,SSE,157,4.7,-999.0,98,-99.99,,,0.00,Acu-Link.com,2013-04-23 14:32:00,
2013-04-23 10:47:00,38.8,38.3,30.77,NE,45,8.3,-999.0,98,-99.99,,,0.00,Acu-Link.com,2013-04-23 14:47:00,
2013-04-23 11:02:00,39.2,38.7,30.76,ESE,112,7.8,-999.0,98,-99.99,,,0.00,Acu-Link.com,2013-04-23 15:02:00,
2013-04-23 11:17:00,40.1,39.6,30.76,East,90,3.8,-999.0,98,-99.99,,,0.00,Acu-Link.com,2013-04-23 15:17:00,
2013-04-23 11:32:00,40.3,39.8,30.75,ENE,67,5.8,-999.0,98,-99.99,,,0.00,Acu-Link.com,2013-04-23 15:32:00,
2013-04-23 11:48:00,40.6,40.1,30.75,SSE,157,9.8,-999.0,98,-99.99,,,0.00,Acu-Link.com,2013-04-23 15:48:00,
2013-04-23 12:03:00,40.6,40.1,30.74,East,90,3.8,-999.0,98,-99.99,,,0.00,Acu-Link.com,2013-04-23 16:03:00,
2013-04-23 12:18:00,41.5,41.0,30.72,NNE,22,2.7,-999.0,98,-99.99,,,0.00,Acu-Link.com,2013-04-23 16:18:00,
2013-04-23 12:33:00,41.7,41.2,30.72,NE,45,3.8,-999.0,98,-99.99,,,0.00,Acu-Link.com,2013-04-23 16:33:00,
2013-04-23 12:48:00,42.3,41.7,30.72,ENE,67,6.7,-999.0,98,-99.99,,,0.00,Acu-Link.com,2013-04-23 16:48:00,
2013-04-23 13:04:00,42.6,42.1,30.70,NE,45,4.3,-999.0,98,-99.99,,,0.00,Acu-Link.com,2013-04-23 17:04:00,
2013-04-23 13:19:00,43.7,43.2,30.69,SSE,157,9.8,-999.0,98,-99.99,,,0.00,Acu-Link.com,2013-04-23 17:19:00,
2013-04-23 13:34:00,44.1,43.5,30.68,ENE,67,13.0,-999.0,98,-99.99,,,0.00,Acu-Link.com,2013-04-23 17:34:00,
2013-04-23 13:49:00,43.7,43.2,30.68,NE,45,4.7,-999.0,98,-99.99,,,0.00,Acu-Link.com,2013-04-23 17:49:00,
2013-04-23 14:05:00,43.3,42.8,30.67,South,180,3.1,-999.0,98,-99.99,,,0.00,Acu-Link.com,2013-04-23 18:05:00,
2013-04-23 14:20:00,43.7,43.2,30.66,NE,45,6.7,-999.0,98,-99.99,,,0.00,Acu-Link.com,2013-04-23 18:20:00,
2013-04-23 14:35:00,44.1,43.5,30.66,East,90,6.7,-999.0,98,-99.99,,,0.00,Acu-Link.com,2013-04-23 18:35:00,
2013-04-23 14:50:00,44.1,43.5,30.66,West,270,6.7,-999.0,98,-99.99,,,0.00,Acu-Link.com,2013-04-23 18:50:00,
2013-04-23 15:05:00,44.2,43.7,30.65,South,180,6.3,-999.0,98,-99.99,,,0.00,Acu-Link.com,2013-04-23 19:05:00,
2013-04-23 15:21:00,44.2,43.7,30.64,ENE,67,4.7,-999.0,98,-99.99,,,0.00,Acu-Link.com,2013-04-23 19:21:00,
2013-04-23 15:36:00,44.4,43.9,30.63,ENE,67,6.7,-999.0,98,-99.99,,,0.00,Acu-Link.com,2013-04-23 19:36:00,
2013-04-23 15:51:00,44.8,44.2,30.63,NE,45,8.9,-999.0,98,-99.99,,,0.00,Acu-Link.com,2013-04-23 19:51:00,
2013-04-23 16:06:00,44.1,43.5,30.62,NE,45,8.9,-999.0,98,-99.99,,,0.00,Acu-Link.com,2013-04-23 20:06:00,
2013-04-23 16:21:00,43.5,43.0,30.63,NNE,22,3.8,-999.0,98,-99.99,,,0.00,Acu-Link.com,2013-04-23 20:21:00,
2013-04-23 16:37:00,44.1,43.5,30.62,East,90,5.8,-999.0,98,-99.99,,,0.00,Acu-Link.com,2013-04-23 20:37:00,
2013-04-23 16:52:00,43.9,43.4,30.62,NE,45,5.8,-999.0,98,-99.99,,,0.00,Acu-Link.com,2013-04-23 20:52:00,
2013-04-23 17:07:00,43.9,43.4,30.61,ESE,112,4.3,-999.0,98,-99.99,,,0.00,Acu-Link.com,2013-04-23 21:07:00,
2013-04-23 17:22:00,43.5,43.0,30.61,NW,315,4.3,-999.0,98,-99.99,,,0.00,Acu-Link.com,2013-04-23 21:22:00,
2013-04-23 17:37:00,44.1,43.5,30.61,ENE,67,5.8,-999.0,98,-99.99,,,0.00,Acu-Link.com,2013-04-23 21:37:00,
2013-04-23 17:53:00,43.9,43.4,30.60,East,90,5.1,-999.0,98,-99.99,,,0.00,Acu-Link.com,2013-04-23 21:53:00,
2013-04-23 18:08:00,43.9,43.4,30.59,ESE,112,5.1,-999.0,98,-99.99,,,0.00,Acu-Link.com,2013-04-23 22:08:00,
2013-04-23 18:23:00,43.7,43.2,30.59,WNW,292,4.7,-999.0,98,-99.99,,,0.00,Acu-Link.com,2013-04-23 22:23:00,
2013-04-23 18:38:00,43.2,42.6,30.59,NE,45,5.8,-999.0,98,-99.99,,,0.00,Acu-Link.com,2013-04-23 22:38:00,
2013-04-23 18:54:00,43.2,42.6,30.58,West,270,3.1,-999.0,98,-99.99,,,0.00,Acu-Link.com,2013-04-23 22:54:00,
2013-04-23 19:09:00,43.0,42.5,30.57,East,90,3.8,-999.0,98,-99.99,,,0.00,Acu-Link.com,2013-04-23 23:09:00,
2013-04-23 19:24:00,42.4,41.9,30.57,West,270,6.7,-999.0,98,-99.99,,,0.00,Acu-Link.com,2013-04-23 23:24:00,
2013-04-23 19:39:00,42.3,41.7,30.56,ENE,67,7.8,-999.0,98,-99.99,,,0.00,Acu-Link.com,2013-04-23 23:39:00,
2013-04-23 19:54:00,42.1,41.6,30.56,East,90,4.7,-999.0,98,-99.99,,,0.00,Acu-Link.com,2013-04-23 23:54:00,
2013-04-23 20:10:00,41.9,41.4,30.55,NNW,337,6.7,-999.0,98,-99.99,,,0.00,Acu-Link.com,2013-04-24 00:10:00,
2013-04-23 20:25:00,41.7,41.2,30.55,NNW,337,2.2,-999.0,98,-99.99,,,0.00,Acu-Link.com,2013-04-24 00:25:00,
2013-04-23 20:40:00,41.7,41.2,30.57,West,270,2.7,-999.0,98,-99.99,,,0.00,Acu-Link.com,2013-04-24 00:40:00,
2013-04-23 20:55:00,41.5,41.0,30.56,ENE,67,4.7,-999.0,98,-99.99,,,0.00,Acu-Link.com,2013-04-24 00:55:00,
2013-04-23 21:10:00,41.5,41.0,30.56,ENE,67,5.8,-999.0,98,-99.99,,,0.00,Acu-Link.com,2013-04-24 01:10:00,
2013-04-23 21:26:00,41.5,41.0,30.55,ESE,112,5.1,-999.0,98,-99.99,,,0.00,Acu-Link.com,2013-04-24 01:26:00,
2013-04-23 21:41:00,41.4,40.8,30.53,NE,45,3.1,-999.0,98,-99.99,,,0.00,Acu-Link.com,2013-04-24 01:41:00,
2013-04-23 21:56:00,41.2,40.7,30.52,ENE,67,6.3,-999.0,98,-99.99,,,0.00,Acu-Link.com,2013-04-24 01:56:00,
2013-04-23 22:11:00,41.2,40.7,30.52,ENE,67,3.8,-999.0,98,-99.99,,,0.00,Acu-Link.com,2013-04-24 02:11:00,
2013-04-23 22:26:00,41.0,40.5,30.52,SE,135,2.7,-999.0,98,-99.99,,,0.00,Acu-Link.com,2013-04-24 02:26:00,
2013-04-23 22:42:00,41.0,40.5,30.50,East,90,8.3,-999.0,98,-99.99,,,0.00,Acu-Link.com,2013-04-24 02:42:00,
2013-04-23 22:57:00,41.0,40.5,30.50,WNW,292,4.7,-999.0,98,-99.99,,,0.00,Acu-Link.com,2013-04-24 02:57:00,
2013-04-23 23:12:00,41.0,40.5,30.49,WNW,292,7.4,-999.0,98,-99.99,,,0.00,Acu-Link.com,2013-04-24 03:12:00,
2013-04-23 23:27:00,40.8,40.3,30.48,North,0,3.1,-999.0,98,-99.99,,,0.00,Acu-Link.com,2013-04-24 03:27:00,
2013-04-23 23:43:00,40.8,40.3,30.47,East,90,8.9,-999.0,98,-99.99,,,0.00,Acu-Link.com,2013-04-24 03:43:00,
2013-04-23 23:58:00,40.8,40.3,30.47,East,90,3.8,-999.0,98,-99.99,,,0.00,Acu-Link.com,2013-04-24 03:58:00,